Time;durP1;ratioP1;P1;durP2;ratioP2;P2;SDS_P1;SDS_P2;PMS_P1;PMS_P2;Temp;Humidity;BMP_temperature;BMP_pressure;BME280_temperature;BME280_humidity;BME280_pressure;Samples;Min_cycle;Max_cycle;Signal;HPM_P1;HPM_P2
2021/12/18 00:00:16;;;;;;;4.47;2.97;;;6.00;99.90;;;;;;5021500;28;20037;-72
2021/12/18 00:02:42;;;;;;;4.75;3.17;;;5.90;99.90;;;;;;5026700;28;20476;-72
2021/12/18 00:05:08;;;;;;;2.67;1.80;;;5.90;99.90;;;;;;5008692;28;20051;-72
2021/12/18 00:07:35;;;;;;;4.45;2.67;;;6.00;99.90;;;;;;5019323;28;20037;-71
2021/12/18 00:10:01;;;;;;;2.63;1.90;;;6.00;99.90;;;;;;5033713;28;20024;-71
2021/12/18 00:12:26;;;;;;;5.25;4.65;;;6.00;99.90;;;;;;5043165;28;20082;-72
2021/12/18 00:14:52;;;;;;;7.15;2.67;;;6.00;99.90;;;;;;5012577;28;20030;-72
2021/12/18 00:17:17;;;;;;;4.13;1.75;;;6.00;99.90;;;;;;5031737;28;20025;-71
2021/12/18 00:19:43;;;;;;;3.13;2.42;;;6.10;99.90;;;;;;5031665;28;20045;-71
2021/12/18 00:22:09;;;;;;;3.20;2.30;;;6.10;99.90;;;;;;5011989;28;20499;-71
2021/12/18 00:24:34;;;;;;;4.28;2.55;;;6.10;99.90;;;;;;5014891;28;20029;-72
2021/12/18 00:27:00;;;;;;;3.22;2.42;;;6.10;99.90;;;;;;5015567;28;20083;-71
2021/12/18 00:29:26;;;;;;;4.63;2.40;;;6.10;99.90;;;;;;5023092;28;20084;-72
2021/12/18 00:31:52;;;;;;;3.28;2.15;;;6.10;99.90;;;;;;5030565;28;20034;-71
2021/12/18 00:34:18;;;;;;;4.55;2.67;;;6.00;99.90;;;;;;5026360;28;20101;-72
2021/12/18 00:36:44;;;;;;;5.35;2.17;;;6.00;99.90;;;;;;5027427;28;20168;-71
2021/12/18 00:39:10;;;;;;;3.33;2.40;;;5.90;99.90;;;;;;5031037;28;20159;-70
2021/12/18 00:41:49;;;;;;;3.50;2.20;;;6.00;99.90;;;;;;5012301;28;20033;-71
2021/12/18 00:44:16;;;;;;;6.45;3.40;;;5.90;99.90;;;;;;5024066;28;20025;-69
2021/12/18 00:46:44;;;;;;;2.95;2.30;;;5.90;99.90;;;;;;5031275;28;20053;-71
2021/12/18 00:49:13;;;;;;;3.72;2.35;;;5.90;99.90;;;;;;5020263;28;20392;-71
2021/12/18 00:51:38;;;;;;;7.53;3.72;;;6.00;99.90;;;;;;5031115;28;20063;-71
2021/12/18 00:54:04;;;;;;;4.15;2.80;;;6.00;99.90;;;;;;5019694;28;20108;-71
2021/12/18 00:56:30;;;;;;;4.15;2.00;;;6.00;99.90;;;;;;5011064;28;20055;-72
2021/12/18 00:58:56;;;;;;;6.70;2.72;;;6.00;99.90;;;;;;5027227;28;20029;-71
2021/12/18 01:01:25;;;;;;;6.13;3.67;;;6.10;99.90;;;;;;5011156;28;20140;-73
2021/12/18 01:03:51;;;;;;;4.05;2.42;;;6.00;99.90;;;;;;5011228;28;20600;-68
2021/12/18 01:06:19;;;;;;;3.47;2.30;;;6.00;99.90;;;;;;5024266;28;20029;-72
2021/12/18 01:08:45;;;;;;;5.47;2.85;;;6.10;99.90;;;;;;5030889;28;20406;-72
2021/12/18 01:24:37;;;;;;;4.70;3.25;;;6.10;99.90;;;;;;5030291;28;20037;-73
2021/12/18 01:27:03;;;;;;;6.72;3.50;;;6.10;99.90;;;;;;5040167;28;20037;-71
2021/12/18 01:29:28;;;;;;;4.68;2.65;;;6.20;99.90;;;;;;5046563;28;20033;-72
2021/12/18 01:31:54;;;;;;;3.00;2.13;;;6.50;99.90;;;;;;5032136;28;20018;-72
2021/12/18 01:34:19;;;;;;;2.78;2.00;;;6.20;99.90;;;;;;5032652;28;20028;-72
2021/12/18 01:36:45;;;;;;;3.22;1.90;;;6.10;99.90;;;;;;5033191;28;20017;-71
2021/12/18 01:39:11;;;;;;;4.40;1.88;;;6.10;99.90;;;;;;5031936;28;20029;-72
2021/12/18 01:41:58;;;;;;;2.53;1.90;;;6.00;99.90;;;;;;5033490;28;20048;-72
2021/12/18 01:52:40;;;;;;;2.70;1.70;;;6.00;99.90;;;;;;5033855;28;20032;-72
2021/12/18 01:55:07;;;;;;;4.40;1.73;;;5.90;99.90;;;;;;5033151;28;20025;-73
2021/12/18 01:57:33;;;;;;;1.95;1.50;;;6.00;99.90;;;;;;5031511;28;20028;-74
2021/12/18 01:59:58;;;;;;;2.95;1.73;;;6.10;99.90;;;;;;5032034;28;20033;-74
2021/12/18 02:02:24;;;;;;;2.50;1.70;;;6.00;99.90;;;;;;5033022;28;20068;-73
2021/12/18 02:04:50;;;;;;;2.05;1.33;;;6.10;99.90;;;;;;5030846;28;20032;-71
2021/12/18 02:07:16;;;;;;;2.10;1.52;;;6.00;99.90;;;;;;5032684;28;20479;-73
2021/12/18 02:10:06;;;;;;;4.35;2.67;;;6.00;99.90;;;;;;5032118;28;20041;-71
2021/12/18 02:12:45;;;;;;;3.67;2.25;;;6.10;99.90;;;;;;5013368;28;20387;-73
2021/12/18 02:23:08;;;;;;;2.78;2.05;;;6.30;99.90;;;;;;5029404;28;20483;-69
2021/12/18 02:25:35;;;;;;;3.30;2.50;;;6.10;99.90;;;;;;5031896;28;20093;-70
2021/12/18 02:28:02;;;;;;;3.65;2.28;;;6.10;99.90;;;;;;5012149;28;20553;-71
2021/12/18 02:30:30;;;;;;;3.10;2.50;;;6.10;99.90;;;;;;5023394;28;20038;-69
2021/12/18 02:32:56;;;;;;;3.92;2.97;;;6.10;99.90;;;;;;5012581;28;20428;-70
2021/12/18 02:35:27;;;;;;;3.60;2.60;;;6.10;99.90;;;;;;5001843;28;20049;-69
2021/12/18 02:38:07;;;;;;;3.65;2.30;;;6.10;99.90;;;;;;5031526;28;20053;-66
2021/12/18 02:43:16;;;;;;;5.10;2.78;;;6.10;99.90;;;;;;5032077;28;20115;-67
2021/12/18 02:45:42;;;;;;;4.70;2.78;;;6.00;99.90;;;;;;5031660;28;20483;-69
2021/12/18 02:48:08;;;;;;;6.05;3.15;;;6.00;99.90;;;;;;5031327;28;20025;-72
2021/12/18 02:50:39;;;;;;;4.63;2.72;;;5.90;99.90;;;;;;5031617;28;20021;-69
2021/12/18 02:53:05;;;;;;;3.75;2.88;;;5.90;99.90;;;;;;5030928;28;20022;-70
2021/12/18 02:55:31;;;;;;;8.57;4.75;;;5.90;99.90;;;;;;5032054;28;20036;-69
2021/12/18 02:57:56;;;;;;;5.70;4.07;;;6.00;99.90;;;;;;5031396;28;20387;-67
2021/12/18 03:00:25;;;;;;;3.05;2.70;;;6.00;99.90;;;;;;5031627;28;20040;-68
2021/12/18 03:02:50;;;;;;;4.15;2.88;;;6.10;99.90;;;;;;5031050;28;20053;-69
2021/12/18 03:05:23;;;;;;;5.35;3.25;;;6.10;99.90;;;;;;5031671;28;20048;-69
2021/12/18 03:07:54;;;;;;;4.38;3.00;;;6.10;99.90;;;;;;5030824;28;20371;-69
2021/12/18 03:24:28;;;;;;;3.90;3.17;;;6.20;99.90;;;;;;4990177;28;20030;-70
2021/12/18 03:26:54;;;;;;;4.45;3.83;;;6.50;99.90;;;;;;4971362;28;20035;-69
2021/12/18 03:29:20;;;;;;;4.57;3.83;;;6.10;99.90;;;;;;5001896;28;20479;-71
2021/12/18 03:31:45;;;;;;;5.40;4.05;;;6.10;99.90;;;;;;5031076;28;20032;-69
2021/12/18 03:34:11;;;;;;;6.05;4.28;;;6.10;99.90;;;;;;5030939;28;20024;-69
2021/12/18 03:36:36;;;;;;;7.05;3.90;;;6.10;99.90;;;;;;5031140;28;20060;-69
2021/12/18 03:39:03;;;;;;;5.53;4.18;;;6.10;99.90;;;;;;5031436;28;20037;-72
2021/12/18 03:41:29;;;;;;;4.35;3.95;;;6.10;99.90;;;;;;5031287;28;20033;-69
2021/12/18 03:43:54;;;;;;;6.25;5.13;;;6.20;99.90;;;;;;5031225;28;20029;-70
2021/12/18 03:46:20;;;;;;;5.00;4.50;;;6.20;99.90;;;;;;5030940;28;20490;-69
2021/12/18 03:48:45;;;;;;;5.28;4.25;;;6.20;99.90;;;;;;5033286;28;20030;-69
2021/12/18 03:51:11;;;;;;;5.88;4.68;;;6.30;99.90;;;;;;5035134;28;20047;-70
2021/12/18 03:53:36;;;;;;;4.70;4.20;;;6.20;99.90;;;;;;5034815;28;20014;-69
2021/12/18 03:56:03;;;;;;;5.22;4.72;;;6.20;99.90;;;;;;5034882;28;20032;-68
2021/12/18 03:58:29;;;;;;;7.13;4.70;;;6.20;99.90;;;;;;5016398;28;20546;-69
2021/12/18 04:00:55;;;;;;;5.35;4.85;;;6.10;99.90;;;;;;5034852;28;20113;-68
2021/12/18 04:03:20;;;;;;;8.10;4.40;;;6.00;99.90;;;;;;5034538;28;20498;-69
2021/12/18 04:05:46;;;;;;;5.78;4.35;;;6.10;99.90;;;;;;5034929;28;20116;-68
2021/12/18 04:08:12;;;;;;;8.23;4.00;;;6.10;99.90;;;;;;5034265;28;20025;-69
2021/12/18 04:10:39;;;;;;;4.45;4.05;;;6.10;99.90;;;;;;5034423;28;20033;-69
2021/12/18 04:13:06;;;;;;;6.70;4.85;;;6.10;99.90;;;;;;5034745;28;20063;-68
2021/12/18 04:15:32;;;;;;;5.25;3.83;;;6.10;99.90;;;;;;5034219;28;20024;-70
2021/12/18 04:17:57;;;;;;;4.75;4.25;;;6.10;99.90;;;;;;5034373;28;20025;-70
2021/12/18 04:20:24;;;;;;;5.95;5.22;;;6.10;99.90;;;;;;5016529;28;20026;-69
2021/12/18 04:22:50;;;;;;;9.43;4.30;;;6.10;99.90;;;;;;5016643;28;20092;-69
2021/12/18 04:25:15;;;;;;;4.38;3.75;;;6.10;99.90;;;;;;5034348;28;20033;-69
2021/12/18 04:27:41;;;;;;;9.98;4.65;;;6.10;99.90;;;;;;5034202;28;20040;-69
2021/12/18 04:30:07;;;;;;;7.40;3.90;;;6.00;99.90;;;;;;5034026;28;20112;-69
2021/12/18 04:32:32;;;;;;;5.63;4.47;;;5.90;99.90;;;;;;5034101;28;20026;-69
2021/12/18 04:34:58;;;;;;;5.65;3.42;;;5.90;99.90;;;;;;5033990;28;20101;-70
2021/12/18 04:37:24;;;;;;;8.82;3.42;;;5.90;99.90;;;;;;5033695;28;20026;-69
2021/12/18 04:39:51;;;;;;;4.53;4.05;;;5.80;99.90;;;;;;5034228;28;20025;-69
2021/12/18 04:42:17;;;;;;;8.63;4.38;;;5.80;99.90;;;;;;5033943;28;20105;-70
2021/12/18 04:44:42;;;;;;;5.93;4.18;;;5.80;99.90;;;;;;5034155;28;20111;-69
2021/12/18 04:47:08;;;;;;;9.00;4.55;;;5.90;99.90;;;;;;5033657;28;20113;-69
2021/12/18 04:49:33;;;;;;;7.72;3.10;;;5.90;99.90;;;;;;5034292;28;20107;-69
2021/12/18 04:51:59;;;;;;;3.60;3.10;;;6.00;99.90;;;;;;5015728;28;20075;-70
2021/12/18 04:54:25;;;;;;;3.95;2.83;;;6.00;99.90;;;;;;5015583;28;20435;-70
2021/12/18 04:56:50;;;;;;;3.97;2.20;;;6.00;99.90;;;;;;5033277;28;20069;-69
2021/12/18 04:59:16;;;;;;;4.63;3.40;;;5.90;99.90;;;;;;5033393;28;20025;-68
2021/12/18 05:01:42;;;;;;;4.07;3.25;;;5.90;99.90;;;;;;5033495;28;20033;-69
2021/12/18 05:04:10;;;;;;;4.05;2.83;;;5.90;99.90;;;;;;5033813;28;20025;-69
2021/12/18 05:06:40;;;;;;;6.13;2.95;;;5.90;99.90;;;;;;5033339;28;20021;-69
2021/12/18 05:09:05;;;;;;;3.90;2.55;;;6.00;99.90;;;;;;5033680;28;20034;-71
2021/12/18 05:11:31;;;;;;;3.28;2.40;;;6.00;99.90;;;;;;5032955;28;20026;-68
2021/12/18 05:13:57;;;;;;;4.25;2.90;;;6.00;99.90;;;;;;5015413;28;20033;-69
2021/12/18 05:16:23;;;;;;;3.80;2.95;;;6.00;99.90;;;;;;5033219;28;20034;-69
2021/12/18 05:18:48;;;;;;;4.18;2.80;;;6.10;99.90;;;;;;5033763;28;20130;-69
2021/12/18 05:21:14;;;;;;;3.60;2.90;;;6.10;99.90;;;;;;5033086;28;20487;-68
2021/12/18 05:23:39;;;;;;;4.45;3.17;;;6.10;99.90;;;;;;5033588;28;20026;-67
2021/12/18 05:26:05;;;;;;;2.53;1.83;;;6.00;99.90;;;;;;5032800;28;20052;-69
2021/12/18 05:28:30;;;;;;;2.85;2.20;;;6.00;99.90;;;;;;5033411;28;20426;-69
2021/12/18 05:30:56;;;;;;;3.08;2.47;;;6.00;99.90;;;;;;5032691;28;20041;-69
2021/12/18 05:33:21;;;;;;;3.88;2.28;;;6.00;99.90;;;;;;5032955;28;20025;-69
2021/12/18 05:35:47;;;;;;;4.15;2.92;;;6.10;99.90;;;;;;5033250;28;20018;-69
2021/12/18 05:38:12;;;;;;;5.30;3.38;;;6.10;99.90;;;;;;5032550;28;20483;-71
2021/12/18 05:40:38;;;;;;;3.53;3.10;;;6.10;99.90;;;;;;5033016;28;20029;-70
2021/12/18 05:43:06;;;;;;;3.45;2.53;;;6.10;99.90;;;;;;5032612;28;20030;-67
2021/12/18 05:45:31;;;;;;;3.70;2.25;;;6.10;99.90;;;;;;5033348;28;20033;-70
2021/12/18 05:47:57;;;;;;;4.28;2.47;;;6.10;99.90;;;;;;5015973;28;20059;-69
2021/12/18 05:50:27;;;;;;;3.65;2.47;;;6.10;99.90;;;;;;5034614;28;20033;-69
2021/12/18 05:52:54;;;;;;;4.28;3.78;;;6.10;99.90;;;;;;5032996;28;20021;-69
2021/12/18 05:55:22;;;;;;;4.85;2.90;;;6.00;99.90;;;;;;5014919;28;20105;-71
2021/12/18 05:57:48;;;;;;;4.43;3.22;;;6.00;99.90;;;;;;5014640;28;20021;-67
2021/12/18 06:00:14;;;;;;;6.15;2.95;;;6.00;99.90;;;;;;5032375;28;20386;-70
2021/12/18 06:02:40;;;;;;;4.15;3.00;;;6.00;99.90;;;;;;5032716;28;20029;-72
2021/12/18 06:05:07;;;;;;;5.60;2.55;;;6.00;99.90;;;;;;5032395;28;20541;-69
2021/12/18 06:07:43;;;;;;;3.58;3.00;;;5.90;99.90;;;;;;5031835;28;20111;-69
2021/12/18 06:10:09;;;;;;;3.25;2.40;;;5.90;99.90;;;;;;5031903;28;20032;-68
2021/12/18 06:12:34;;;;;;;4.40;2.70;;;5.90;99.90;;;;;;5014905;28;20025;-70
2021/12/18 06:15:00;;;;;;;2.88;2.35;;;5.90;99.90;;;;;;5032363;28;20022;-71
2021/12/18 06:17:25;;;;;;;3.58;2.35;;;5.90;99.90;;;;;;5032286;28;20411;-68
2021/12/18 06:19:51;;;;;;;2.97;2.10;;;5.90;99.90;;;;;;5032395;28;20037;-67
2021/12/18 06:22:17;;;;;;;3.20;2.08;;;5.90;99.90;;;;;;5032187;28;20041;-67
2021/12/18 06:24:42;;;;;;;3.00;2.33;;;6.00;99.90;;;;;;5031488;28;20036;-69
2021/12/18 06:27:08;;;;;;;5.57;2.22;;;6.00;99.90;;;;;;5032111;28;20053;-69
2021/12/18 06:29:34;;;;;;;3.15;2.85;;;6.00;99.90;;;;;;5032351;28;20025;-69
2021/12/18 06:32:01;;;;;;;4.97;2.70;;;6.00;99.90;;;;;;5031734;28;20022;-68
2021/12/18 06:34:26;;;;;;;4.97;3.15;;;6.00;99.90;;;;;;5031935;28;20049;-68
2021/12/18 06:36:52;;;;;;;3.88;3.20;;;5.90;99.90;;;;;;5031221;28;20072;-67
2021/12/18 06:39:17;;;;;;;4.00;2.80;;;6.00;99.90;;;;;;5031894;28;20105;-69
2021/12/18 06:41:43;;;;;;;5.57;3.72;;;6.00;99.90;;;;;;5031601;28;20087;-69
2021/12/18 06:44:08;;;;;;;4.03;2.97;;;6.00;99.90;;;;;;5031704;28;20101;-69
2021/12/18 06:46:34;;;;;;;2.60;2.30;;;6.10;99.90;;;;;;5031284;28;20095;-66
2021/12/18 06:48:59;;;;;;;3.25;2.10;;;6.00;99.90;;;;;;5031842;28;20025;-70
2021/12/18 06:51:25;;;;;;;2.72;1.73;;;6.00;99.90;;;;;;5014016;28;20494;-69
2021/12/18 06:53:51;;;;;;;2.47;1.85;;;6.50;99.90;;;;;;5031373;28;20030;-66
2021/12/18 06:56:17;;;;;;;2.90;1.90;;;6.00;99.90;;;;;;5013799;28;20116;-69
2021/12/18 06:58:42;;;;;;;2.85;1.90;;;5.90;99.90;;;;;;5030743;28;20033;-70
2021/12/18 07:01:08;;;;;;;2.92;2.17;;;6.00;99.90;;;;;;5031386;28;20022;-70
2021/12/18 07:03:35;;;;;;;3.83;2.17;;;6.00;99.90;;;;;;4334821;28;10000694;-72
2021/12/18 07:06:01;;;;;;;2.20;1.70;;;6.00;99.90;;;;;;5028140;28;20034;-67
2021/12/18 07:08:27;;;;;;;2.80;2.13;;;5.90;99.90;;;;;;5028471;28;20040;-68
2021/12/18 07:10:52;;;;;;;2.70;2.10;;;5.90;99.90;;;;;;5028171;28;20033;-68
2021/12/18 07:13:18;;;;;;;4.60;2.72;;;5.90;99.90;;;;;;5028491;28;20044;-67
2021/12/18 07:15:43;;;;;;;2.60;2.20;;;6.00;99.90;;;;;;5028283;28;20104;-68
2021/12/18 07:18:09;;;;;;;3.10;2.33;;;6.00;99.90;;;;;;5028160;28;20021;-68
2021/12/18 07:20:35;;;;;;;3.08;2.47;;;6.00;99.90;;;;;;5028479;28;20025;-70
2021/12/18 07:23:01;;;;;;;4.00;3.25;;;6.00;99.90;;;;;;5028899;28;20124;-67
2021/12/18 07:25:27;;;;;;;3.05;2.60;;;6.00;99.90;;;;;;5028586;28;20612;-69
2021/12/18 07:27:54;;;;;;;7.55;3.00;;;5.90;99.90;;;;;;5027857;28;20450;-69
2021/12/18 07:30:19;;;;;;;4.28;2.97;;;6.00;99.90;;;;;;5027683;28;20021;-68
2021/12/18 07:32:45;;;;;;;4.43;2.78;;;6.00;99.90;;;;;;5027903;28;20024;-73
2021/12/18 07:35:11;;;;;;;3.85;3.20;;;6.00;99.90;;;;;;5027907;28;20108;-68
2021/12/18 07:37:37;;;;;;;5.32;4.43;;;5.90;99.90;;;;;;5027625;28;20440;-73
2021/12/18 07:40:05;;;;;;;5.22;4.70;;;5.90;99.90;;;;;;5028698;28;20030;-74
2021/12/18 07:42:31;;;;;;;5.53;4.88;;;5.80;99.90;;;;;;5028120;28;20041;-73
2021/12/18 07:44:57;;;;;;;4.55;3.92;;;5.80;99.90;;;;;;5028483;28;20021;-73
2021/12/18 07:47:23;;;;;;;4.43;3.70;;;5.80;99.90;;;;;;5027915;28;20060;-73
2021/12/18 07:49:48;;;;;;;4.90;4.40;;;5.70;99.90;;;;;;5028285;28;20479;-70
2021/12/18 07:52:14;;;;;;;7.75;5.38;;;5.70;99.90;;;;;;5027956;28;20060;-71
2021/12/18 07:54:41;;;;;;;3.97;3.38;;;5.70;99.90;;;;;;5028077;28;20052;-70
2021/12/18 07:57:07;;;;;;;3.15;2.67;;;5.80;99.90;;;;;;5028162;28;20479;-70
2021/12/18 07:59:33;;;;;;;4.90;4.32;;;5.80;99.90;;;;;;5028448;28;20079;-70
2021/12/18 08:02:00;;;;;;;3.90;3.25;;;5.80;99.90;;;;;;5024801;28;20517;-71
2021/12/18 08:04:26;;;;;;;3.58;2.67;;;5.80;99.90;;;;;;5013293;28;20032;-70
2021/12/18 08:06:52;;;;;;;6.72;3.63;;;5.70;99.90;;;;;;5028209;28;20033;-73
2021/12/18 08:09:17;;;;;;;4.30;3.15;;;5.70;99.90;;;;;;5028621;28;20720;-73
2021/12/18 08:11:43;;;;;;;4.03;2.97;;;5.80;99.90;;;;;;5028072;28;20738;-72
2021/12/18 08:14:09;;;;;;;3.78;2.75;;;5.80;99.90;;;;;;5028753;28;20065;-72
2021/12/18 08:16:34;;;;;;;4.53;3.15;;;5.80;99.90;;;;;;5028556;28;20342;-72
2021/12/18 08:19:00;;;;;;;3.50;2.30;;;5.80;99.90;;;;;;5028282;28;20060;-71
2021/12/18 08:21:26;;;;;;;3.55;3.08;;;5.80;99.90;;;;;;5043918;22;20045;-70
2021/12/18 08:23:51;;;;;;;2.47;1.58;;;5.70;99.90;;;;;;5027927;28;20047;-72
2021/12/18 08:26:17;;;;;;;3.72;2.17;;;5.70;99.90;;;;;;5027587;28;20030;-72
2021/12/18 08:28:42;;;;;;;3.15;2.33;;;5.70;99.90;;;;;;5028372;28;20025;-71
2021/12/18 08:31:08;;;;;;;2.50;1.65;;;5.70;99.90;;;;;;5028173;28;20116;-71
2021/12/18 08:33:34;;;;;;;4.65;2.58;;;5.70;99.90;;;;;;4990773;28;20061;-72
2021/12/18 08:35:59;;;;;;;3.10;2.47;;;6.20;99.90;;;;;;4994065;28;20034;-72
2021/12/18 08:38:25;;;;;;;5.18;2.95;;;5.70;99.90;;;;;;5011264;28;20049;-71
2021/12/18 08:40:50;;;;;;;3.75;2.70;;;5.70;99.90;;;;;;4994119;28;20037;-70
2021/12/18 08:43:16;;;;;;;5.13;2.92;;;5.80;99.90;;;;;;4995422;28;20479;-72
2021/12/18 08:45:42;;;;;;;3.67;2.78;;;5.90;99.90;;;;;;5014042;28;20407;-72
2021/12/18 08:48:08;;;;;;;2.83;2.03;;;5.80;99.90;;;;;;5005858;28;20034;-73
2021/12/18 08:50:33;;;;;;;2.20;1.60;;;5.70;99.90;;;;;;5001489;28;20691;-69
2021/12/18 08:52:59;;;;;;;1.88;1.30;;;5.70;99.90;;;;;;5013536;28;20080;-71
2021/12/18 08:55:25;;;;;;;2.58;1.60;;;5.70;99.90;;;;;;5006371;28;20153;-72
2021/12/18 08:57:51;;;;;;;1.98;1.25;;;5.70;99.90;;;;;;4987201;28;20022;-74
2021/12/18 09:00:20;;;;;;;3.80;1.67;;;5.70;99.90;;;;;;5012558;28;20385;-74
2021/12/18 09:02:48;;;;;;;3.25;1.42;;;5.80;99.90;;;;;;5004099;28;20076;-71
2021/12/18 09:05:15;;;;;;;3.92;1.70;;;5.90;99.90;;;;;;5015241;28;20100;-71
2021/12/18 09:07:41;;;;;;;2.95;1.83;;;7.10;99.90;;;;;;5014676;28;20045;-73
2021/12/18 09:10:08;;;;;;;2.83;1.65;;;5.90;99.90;;;;;;5014403;28;20062;-73
2021/12/18 09:12:33;;;;;;;3.40;2.05;;;6.00;99.90;;;;;;5013087;28;20141;-71
2021/12/18 09:14:59;;;;;;;2.70;2.00;;;6.00;99.90;;;;;;5015368;28;20022;-73
2021/12/18 09:17:25;;;;;;;2.60;2.00;;;5.90;99.90;;;;;;5022395;28;20021;-71
2021/12/18 09:19:51;;;;;;;4.43;2.35;;;6.00;99.90;;;;;;5022591;28;20484;-70
2021/12/18 09:22:18;;;;;;;3.13;2.17;;;5.90;99.90;;;;;;5017467;28;20018;-70
2021/12/18 09:24:43;;;;;;;4.32;2.38;;;6.00;99.90;;;;;;5015387;28;20057;-69
2021/12/18 09:27:09;;;;;;;3.60;2.42;;;6.00;99.90;;;;;;5002997;28;20345;-76
2021/12/18 09:29:35;;;;;;;3.45;2.72;;;6.00;99.90;;;;;;5012638;28;20023;-70
2021/12/18 09:32:01;;;;;;;2.78;2.10;;;6.10;99.90;;;;;;5005899;28;20030;-69
2021/12/18 09:34:28;;;;;;;4.05;2.67;;;6.10;99.90;;;;;;5016426;28;20120;-71
2021/12/18 09:36:55;;;;;;;3.95;2.53;;;6.10;99.90;;;;;;5010033;28;20435;-69
2021/12/18 09:39:20;;;;;;;4.03;2.80;;;6.20;99.90;;;;;;5011629;28;20041;-69
2021/12/18 09:41:50;;;;;;;4.97;3.28;;;6.10;99.90;;;;;;5016800;28;20034;-70
2021/12/18 09:44:23;;;;;;;6.22;3.80;;;6.40;99.90;;;;;;5007270;28;20598;-69
2021/12/18 09:46:49;;;;;;;3.80;2.97;;;6.20;99.90;;;;;;5006084;28;20396;-69
2021/12/18 09:49:15;;;;;;;3.92;3.03;;;6.20;99.90;;;;;;5008879;28;20026;-70
2021/12/18 09:51:41;;;;;;;5.90;4.03;;;6.20;99.90;;;;;;5009185;28;20527;-70
2021/12/18 09:54:07;;;;;;;3.92;2.95;;;6.20;99.90;;;;;;5009280;28;20030;-70
2021/12/18 09:56:33;;;;;;;4.03;3.20;;;6.20;99.90;;;;;;5008484;28;20036;-72
2021/12/18 09:58:58;;;;;;;5.50;4.00;;;6.30;99.90;;;;;;5010271;28;20072;-70
2021/12/18 10:01:24;;;;;;;6.35;3.90;;;6.40;99.90;;;;;;5010883;28;20037;-67
2021/12/18 10:03:49;;;;;;;4.22;3.05;;;6.40;99.90;;;;;;5009941;28;20026;-68
2021/12/18 10:06:36;;;;;;;3.47;2.90;;;6.30;99.90;;;;;;4994421;28;20030;-68
2021/12/18 10:09:13;;;;;;;5.35;3.35;;;6.40;99.90;;;;;;4994470;28;20032;-68
2021/12/18 10:11:51;;;;;;;4.47;3.40;;;6.30;99.90;;;;;;4996350;28;20560;-69
2021/12/18 10:14:18;;;;;;;6.05;4.03;;;6.30;99.90;;;;;;4317879;28;10000685;-69
2021/12/18 10:16:50;;;;;;;8.30;4.47;;;6.40;99.90;;;;;;5010597;28;20029;-70
2021/12/18 10:19:29;;;;;;;5.72;4.07;;;6.50;99.90;;;;;;5022246;28;20017;-69
2021/12/18 10:22:03;;;;;;;8.27;4.78;;;6.50;99.90;;;;;;5008467;28;20026;-69
2021/12/18 10:24:29;;;;;;;7.75;3.60;;;6.60;99.90;;;;;;5012334;28;20121;-70
2021/12/18 10:26:55;;;;;;;4.90;4.40;;;6.60;99.90;;;;;;5025954;28;20068;-70
2021/12/18 10:29:36;;;;;;;5.18;3.97;;;6.60;99.90;;;;;;5012605;28;20034;-74
2021/12/18 10:32:08;;;;;;;7.28;4.05;;;6.60;99.90;;;;;;5012695;28;20459;-72
2021/12/18 10:34:34;;;;;;;4.25;3.42;;;6.70;99.90;;;;;;5010936;28;20049;-71
2021/12/18 10:37:10;;;;;;;4.15;2.72;;;6.60;99.90;;;;;;5011975;28;20127;-69
2021/12/18 10:39:38;;;;;;;5.68;2.53;;;7.20;99.90;;;;;;5012454;28;20054;-72
2021/12/18 10:42:24;;;;;;;3.03;2.13;;;6.60;99.90;;;;;;5024655;28;20402;-70
2021/12/18 10:45:11;;;;;;;3.75;2.33;;;6.60;99.90;;;;;;5032379;28;20097;-74
2021/12/18 10:47:54;;;;;;;3.85;2.58;;;6.70;99.90;;;;;;5014883;28;20038;-69
2021/12/18 10:50:20;;;;;;;5.43;2.50;;;6.70;99.90;;;;;;5011665;28;20458;-68
2021/12/18 10:52:52;;;;;;;3.67;2.42;;;6.70;99.90;;;;;;4993816;28;20049;-67
2021/12/18 10:55:18;;;;;;;4.15;2.40;;;6.70;99.90;;;;;;4994749;28;20026;-66
2021/12/18 10:57:51;;;;;;;3.33;1.92;;;6.70;99.90;;;;;;5011682;28;20044;-69
2021/12/18 11:00:17;;;;;;;5.00;2.40;;;6.70;99.90;;;;;;5012429;28;20032;-69
2021/12/18 11:02:43;;;;;;;4.18;2.40;;;6.70;99.90;;;;;;5011970;28;20543;-69
2021/12/18 11:05:16;;;;;;;4.05;1.95;;;6.70;99.90;;;;;;5010356;28;20105;-69
2021/12/18 11:07:44;;;;;;;3.67;2.03;;;6.70;99.90;;;;;;5011975;28;20030;-70
2021/12/18 11:10:40;;;;;;;5.43;2.03;;;6.60;99.90;;;;;;5012219;28;20030;-70
2021/12/18 11:15:51;;;;;;;3.78;1.90;;;6.60;99.90;;;;;;5012005;28;20502;-68
2021/12/18 11:18:18;;;;;;;3.40;1.90;;;7.30;99.90;;;;;;5011660;28;20105;-68
2021/12/18 11:20:46;;;;;;;3.90;2.33;;;6.70;99.90;;;;;;5012137;28;20099;-68
2021/12/18 11:23:12;;;;;;;4.10;1.88;;;6.80;99.90;;;;;;5012131;28;20106;-68
2021/12/18 11:25:41;;;;;;;3.90;1.50;;;7.30;99.90;;;;;;5011341;28;20504;-71
2021/12/18 11:28:08;;;;;;;1.85;1.10;;;6.70;99.90;;;;;;5011357;28;20080;-70
2021/12/18 11:30:34;;;;;;;3.20;1.50;;;6.70;99.90;;;;;;5012741;28;20030;-68
2021/12/18 11:33:01;;;;;;;3.05;1.63;;;6.70;99.90;;;;;;5010299;28;20022;-68
2021/12/18 11:35:27;;;;;;;3.03;1.40;;;7.10;99.90;;;;;;5011764;28;20459;-67
2021/12/18 11:38:07;;;;;;;3.90;1.55;;;6.70;99.90;;;;;;5011725;28;20424;-69
2021/12/18 11:40:37;;;;;;;2.90;1.70;;;6.60;99.90;;;;;;5011434;28;20030;-68
2021/12/18 11:43:27;;;;;;;4.43;1.83;;;6.50;99.90;;;;;;5010186;28;20040;-67
2021/12/18 11:45:53;;;;;;;2.28;1.27;;;6.60;99.90;;;;;;5010206;28;20064;-70
2021/12/18 11:48:19;;;;;;;1.98;1.20;;;6.60;99.90;;;;;;4997140;28;20500;-71
2021/12/18 11:50:47;;;;;;;2.45;1.08;;;6.60;99.90;;;;;;5002519;28;20049;-70
2021/12/18 11:53:15;;;;;;;1.73;1.17;;;8.50;99.90;;;;;;5003099;28;20029;-70
2021/12/18 11:55:49;;;;;;;2.28;1.63;;;7.60;99.90;;;;;;5005898;28;20066;-70
2021/12/18 11:58:23;;;;;;;1.58;0.98;;;8.50;99.90;;;;;;4990648;28;20018;-69
2021/12/18 12:01:05;;;;;;;1.42;0.93;;;6.80;99.90;;;;;;5005133;28;20507;-70
2021/12/18 12:03:36;;;;;;;2.25;1.17;;;7.40;99.90;;;;;;5005785;28;20368;-64
2021/12/18 12:06:28;;;;;;;2.75;1.20;;;6.80;99.90;;;;;;5006025;28;20041;-64
2021/12/18 12:09:35;;;;;;;3.10;1.15;;;6.50;99.90;;;;;;4995271;28;20037;-70
2021/12/18 12:12:09;;;;;;;2.88;1.70;;;6.80;99.90;;;;;;4997316;28;20034;-69
2021/12/18 12:14:41;;;;;;;2.22;1.30;;;6.80;99.90;;;;;;5011698;28;20030;-70
2021/12/18 12:17:21;;;;;;;1.55;1.08;;;6.90;99.90;;;;;;5004986;28;20030;-70
2021/12/18 12:20:06;;;;;;;2.53;0.85;;;6.90;99.90;;;;;;5011321;28;20446;-70
2021/12/18 12:22:37;;;;;;;1.67;0.90;;;6.90;99.90;;;;;;5006646;28;20022;-70
2021/12/18 12:25:05;;;;;;;1.80;1.08;;;6.90;99.90;;;;;;5002712;28;20026;-70
2021/12/18 12:27:33;;;;;;;1.00;0.70;;;7.00;99.90;;;;;;4998328;28;20022;-68
2021/12/18 12:30:00;;;;;;;1.77;1.00;;;7.00;99.90;;;;;;5004558;28;20462;-70
2021/12/18 12:32:29;;;;;;;1.33;0.82;;;7.00;99.90;;;;;;5010383;28;20029;-69
2021/12/18 12:35:07;;;;;;;1.65;1.13;;;7.10;99.90;;;;;;5006990;28;20092;-70
2021/12/18 12:37:36;;;;;;;1.90;0.90;;;7.00;99.90;;;;;;5009182;28;20014;-68
2021/12/18 12:40:15;;;;;;;1.15;0.70;;;7.10;99.90;;;;;;4996283;28;20495;-69
2021/12/18 12:43:10;;;;;;;0.73;0.60;;;7.00;99.90;;;;;;5005580;28;20776;-69
2021/12/18 12:45:38;;;;;;;2.65;0.95;;;7.00;99.90;;;;;;4992767;28;20368;-72
2021/12/18 12:48:04;;;;;;;2.10;0.70;;;9.20;99.90;;;;;;5010748;28;20036;-72
2021/12/18 12:50:31;;;;;;;1.85;1.10;;;7.00;99.90;;;;;;5006584;28;20400;-71
2021/12/18 12:53:05;;;;;;;1.50;0.80;;;7.10;99.90;;;;;;5004580;28;20026;-70
2021/12/18 12:55:42;;;;;;;2.67;0.70;;;7.10;99.90;;;;;;4998696;28;20105;-71
2021/12/18 12:58:24;;;;;;;1.77;0.90;;;7.00;99.90;;;;;;4998271;28;20022;-70
2021/12/18 13:00:57;;;;;;;1.60;0.82;;;7.00;99.90;;;;;;4993068;28;20022;-71
2021/12/18 13:03:26;;;;;;;2.50;0.80;;;6.90;99.90;;;;;;5009533;28;20399;-70
2021/12/18 13:05:53;;;;;;;1.20;0.75;;;6.80;99.90;;;;;;5008891;28;20200;-69
2021/12/18 13:08:21;;;;;;;2.00;1.13;;;6.90;99.90;;;;;;4996370;28;20034;-70
2021/12/18 13:10:51;;;;;;;2.78;0.77;;;6.90;99.90;;;;;;4999092;28;20034;-70
2021/12/18 13:13:18;;;;;;;2.22;0.77;;;7.00;99.90;;;;;;5009389;28;20025;-70
2021/12/18 13:16:10;;;;;;;2.25;0.90;;;7.00;99.90;;;;;;5007545;28;20451;-70
2021/12/18 13:18:55;;;;;;;1.33;0.88;;;7.10;99.90;;;;;;5008894;28;20468;-71
2021/12/18 13:21:26;;;;;;;1.33;0.68;;;7.20;99.90;;;;;;5001363;28;20499;-70
2021/12/18 13:24:01;;;;;;;1.00;0.60;;;7.20;99.90;;;;;;5007690;28;20038;-71
2021/12/18 13:26:45;;;;;;;2.28;0.90;;;7.10;99.90;;;;;;5001803;28;20087;-71
2021/12/18 13:29:16;;;;;;;0.90;0.60;;;7.10;99.90;;;;;;5000548;28;20026;-71
2021/12/18 13:31:49;;;;;;;1.05;0.63;;;7.10;99.90;;;;;;5008083;28;20073;-71
2021/12/18 13:34:21;;;;;;;2.08;0.85;;;7.00;99.90;;;;;;4991900;28;20434;-71
2021/12/18 13:37:03;;;;;;;2.80;1.08;;;7.10;99.90;;;;;;5009022;28;20105;-70
2021/12/18 13:39:30;;;;;;;2.30;0.98;;;7.10;99.90;;;;;;5008071;28;20360;-72
2021/12/18 13:42:14;;;;;;;2.05;0.85;;;7.10;99.90;;;;;;5014864;28;20041;-72
2021/12/18 13:45:01;;;;;;;2.92;0.80;;;7.00;99.90;;;;;;5006036;28;20034;-72
2021/12/18 13:47:38;;;;;;;2.45;0.85;;;;;;;;;;4999617;28;20022;-74
2021/12/18 13:50:11;;;;;;;2.22;0.80;;;7.30;99.90;;;;;;5003436;28;20030;-70
2021/12/18 13:52:42;;;;;;;1.02;0.75;;;;;;;;;;5001536;28;20023;-75